createdAt,value
2018-04-13T12:15:45.351Z,22.64
2018-04-13T12:16:44.910Z,22.68
2018-04-13T12:17:44.879Z,22.72
2018-04-13T12:18:44.943Z,22.89
2018-04-13T12:19:44.813Z,22.86
2018-04-13T12:20:44.794Z,22.93
2018-04-13T12:21:44.814Z,22.94
2018-04-13T12:22:44.733Z,22.99
2018-04-13T12:23:44.698Z,23.08
2018-04-13T12:24:44.663Z,23.09
2018-04-13T12:25:44.660Z,23.20
2018-04-13T12:26:44.656Z,23.20
2018-04-13T12:27:44.571Z,23.32
2018-04-13T12:28:44.733Z,23.46
2018-04-13T12:29:44.568Z,23.52
2018-04-13T12:30:44.484Z,23.52
2018-04-13T12:31:44.580Z,23.58
2018-04-13T12:32:44.598Z,23.65
2018-04-13T12:33:44.533Z,23.58
2018-04-13T12:34:44.452Z,23.57
2018-04-13T12:35:44.368Z,23.55
2018-04-13T12:36:44.344Z,23.60
2018-04-13T12:37:44.419Z,23.61
2018-04-13T12:39:44.395Z,23.60
2018-04-13T12:40:44.353Z,23.70
2018-04-13T12:41:44.195Z,23.64
2018-04-13T12:42:44.262Z,23.67
2018-04-13T12:43:44.127Z,23.65
2018-04-13T12:44:44.097Z,23.61
2018-04-13T12:45:44.068Z,23.65
2018-04-13T12:46:44.044Z,23.68
2018-04-13T12:47:44.018Z,23.64
2018-04-13T12:48:43.985Z,23.62
2018-04-13T12:49:43.941Z,23.67
2018-04-13T12:50:43.921Z,23.62
2018-04-13T12:51:43.904Z,23.60
2018-04-13T12:52:43.880Z,23.67
2018-04-13T12:53:43.842Z,23.57
2018-04-13T12:54:43.979Z,23.65
2018-04-13T12:55:43.779Z,23.62
2018-04-13T13:47:18.300Z,24.37
2018-04-13T13:48:18.027Z,24.34
2018-04-13T13:49:17.988Z,24.35
2018-04-13T13:50:17.940Z,24.38
2018-04-13T13:51:17.909Z,24.35
2018-04-13T13:52:17.865Z,24.39
2018-04-13T13:53:17.836Z,24.44
2018-04-13T13:54:17.812Z,24.52
2018-04-13T13:55:17.758Z,24.53
2018-04-13T13:56:17.728Z,24.60
2018-04-13T13:57:17.696Z,24.64
2018-04-13T13:58:17.681Z,24.54
2018-04-13T13:59:17.645Z,24.60
2018-04-13T14:00:17.608Z,24.64
2018-04-13T14:01:17.572Z,24.71
2018-04-13T14:02:17.539Z,24.56
2018-04-13T14:03:17.674Z,24.61
2018-04-13T14:04:17.486Z,24.64
2018-04-13T14:05:17.465Z,24.63
2018-04-13T14:06:17.432Z,24.52
2018-04-13T14:07:17.406Z,24.45
2018-04-13T14:08:17.360Z,24.47
2018-04-13T14:09:17.336Z,24.53
2018-04-13T14:10:17.301Z,24.52
2018-04-13T14:11:17.291Z,24.49
2018-04-13T14:12:17.242Z,24.53
2018-04-13T14:13:17.240Z,24.54
2018-04-13T14:14:17.176Z,24.60
2018-04-13T14:15:17.185Z,24.68
2018-04-13T14:16:17.156Z,24.77
2018-04-13T14:17:17.097Z,24.64
2018-04-13T14:18:17.083Z,24.73
2018-04-13T14:19:17.112Z,24.59
2018-04-13T14:20:17.015Z,24.69
2018-04-13T14:21:16.985Z,24.69
2018-04-13T14:22:16.980Z,24.80
2018-04-13T14:23:16.947Z,24.83
2018-04-13T14:24:16.900Z,24.80
2018-04-13T14:25:16.885Z,24.85
2018-04-13T14:26:16.846Z,24.87
2018-04-13T14:27:16.821Z,24.85
2018-04-13T14:28:16.809Z,24.82
2018-04-13T14:29:16.792Z,24.87
2018-04-13T14:30:16.752Z,24.75
2018-04-13T14:31:16.760Z,24.94
2018-04-13T14:32:16.696Z,25.00
2018-04-13T14:33:16.666Z,24.98
2018-04-13T14:34:16.622Z,25.05
2018-04-13T14:35:16.618Z,25.06
2018-04-13T14:36:16.577Z,25.16
2018-04-13T14:37:16.562Z,25.10
2018-04-13T14:38:16.532Z,25.05
2018-04-13T14:39:16.510Z,25.12
2018-04-13T14:40:16.579Z,25.00
2018-04-13T14:41:16.441Z,25.05
2018-04-13T14:42:16.414Z,25.09
2018-04-13T14:43:16.404Z,25.16
2018-04-13T14:44:16.383Z,25.13
2018-04-13T14:45:16.328Z,25.09
2018-04-13T14:46:16.317Z,25.10
2018-04-13T14:47:16.294Z,24.92
2018-04-13T14:48:16.266Z,25.00
2018-04-13T14:49:16.251Z,24.98
2018-04-13T14:50:16.189Z,24.98
2018-04-13T14:51:16.183Z,25.02
2018-04-13T14:52:16.148Z,25.19
2018-04-13T14:53:16.116Z,25.22
2018-04-13T14:54:16.099Z,25.27
2018-04-13T14:55:16.094Z,25.34
2018-04-13T14:56:16.048Z,25.49
2018-04-13T14:57:16.011Z,25.43
2018-04-13T14:58:16.003Z,25.46
2018-04-13T14:59:15.959Z,25.38
2018-04-13T15:00:15.952Z,25.28
2018-04-13T15:01:15.906Z,25.28
2018-04-13T15:02:15.886Z,25.25
2018-04-13T15:03:15.852Z,25.27
2018-04-13T15:04:15.825Z,25.31
2018-04-13T15:05:15.804Z,25.31
2018-04-13T15:06:16.045Z,25.31
2018-04-13T15:07:15.780Z,25.24
2018-04-13T15:08:15.721Z,25.30
2018-04-13T15:09:15.700Z,25.28
2018-04-13T15:10:15.674Z,25.38
2018-04-13T15:11:15.639Z,25.32
2018-04-13T15:12:16.177Z,25.42
2018-04-13T15:13:15.607Z,25.44
2018-04-13T15:14:15.575Z,25.50
2018-04-13T15:15:15.560Z,25.52
2018-04-13T15:16:15.517Z,25.62
2018-04-13T15:17:15.488Z,25.67
2018-04-13T15:18:15.564Z,25.82
2018-04-13T15:19:15.434Z,25.79
2018-04-13T15:20:15.406Z,25.84
2018-04-13T15:21:15.396Z,25.77
2018-04-13T15:22:15.346Z,25.84
2018-04-13T15:23:15.333Z,25.87
2018-04-13T15:24:15.297Z,25.84
2018-04-13T15:25:15.268Z,25.93
2018-04-13T15:26:15.263Z,25.87
2018-04-13T15:27:15.227Z,25.89
2018-04-13T15:28:15.211Z,25.86
2018-04-13T15:29:15.197Z,25.75
2018-04-13T15:30:15.144Z,25.68
2018-04-13T15:31:15.139Z,25.72
2018-04-13T15:32:15.104Z,25.61
2018-04-13T15:33:15.082Z,25.49
2018-04-13T15:34:15.054Z,25.54
2018-04-13T15:35:15.008Z,25.49
2018-04-13T15:36:14.989Z,25.49
2018-04-13T15:37:14.981Z,25.56
2018-04-13T15:38:14.953Z,25.50
2018-04-13T15:39:14.910Z,25.59
2018-04-13T15:40:14.919Z,25.64
2018-04-13T15:41:14.878Z,25.67
2018-04-13T15:42:14.832Z,25.67
2018-04-13T15:43:14.824Z,25.67
2018-04-13T15:44:14.802Z,25.64
2018-04-13T15:45:14.764Z,25.69
2018-04-13T15:46:14.791Z,25.69
2018-04-13T15:47:14.704Z,25.68
2018-04-13T15:48:14.702Z,25.75
2018-04-13T15:49:14.648Z,25.79
2018-04-13T15:50:14.638Z,25.67
2018-04-13T15:51:14.622Z,25.69
2018-04-13T15:52:14.592Z,25.65
2018-04-13T15:53:14.546Z,25.62
2018-04-13T15:54:14.841Z,25.54
2018-04-13T15:55:14.486Z,25.65
2018-04-13T15:56:14.479Z,25.64
2018-04-13T15:57:14.463Z,25.64
2018-04-13T15:58:14.418Z,25.67
2018-04-13T15:59:14.399Z,25.74
2018-04-13T16:00:14.382Z,25.87
2018-04-13T16:01:14.352Z,25.84
2018-04-13T16:02:14.313Z,25.87
2018-04-13T16:03:14.302Z,25.89
2018-04-13T16:04:14.264Z,25.89
2018-04-13T16:05:14.238Z,25.91
2018-04-13T16:06:14.220Z,25.94
2018-04-13T16:07:14.216Z,25.99
2018-04-13T16:08:14.175Z,26.08
2018-04-13T16:09:14.133Z,26.01
2018-04-13T16:10:14.122Z,26.04
2018-04-13T16:11:14.091Z,26.02
2018-04-13T16:12:14.057Z,26.01
2018-04-13T16:13:14.040Z,25.97
2018-04-13T16:14:14.004Z,26.01
2018-04-13T16:15:13.993Z,25.99
2018-04-13T16:16:13.968Z,26.02
2018-04-13T16:17:13.953Z,25.97
2018-04-13T16:18:13.903Z,25.97
2018-04-13T16:19:13.882Z,25.94
2018-04-13T16:20:14.120Z,25.86
2018-04-13T16:21:13.847Z,25.84
2018-04-13T16:22:13.803Z,25.79
2018-04-13T16:23:13.776Z,25.79
2018-04-13T16:24:13.759Z,25.83
2018-04-13T16:25:13.721Z,25.93
2018-04-13T16:26:13.897Z,25.94
2018-04-13T16:27:13.691Z,25.97
2018-04-13T16:28:13.663Z,25.94
2018-04-13T16:29:13.635Z,25.94
2018-04-13T16:30:13.592Z,25.98
2018-04-13T16:31:13.585Z,25.97
2018-04-13T16:32:13.540Z,26.02
2018-04-13T16:33:13.512Z,25.93
2018-04-13T16:34:13.515Z,25.99
2018-04-13T16:35:13.454Z,25.97
2018-04-13T16:36:13.440Z,26.01
2018-04-13T16:37:13.540Z,26.01
2018-04-13T16:38:13.395Z,25.91
2018-04-13T16:39:13.371Z,25.84
2018-04-13T16:40:13.340Z,25.79
2018-04-13T16:41:13.360Z,25.87
2018-04-13T16:42:13.306Z,25.90
2018-04-13T16:43:13.250Z,25.93
2018-04-13T16:44:13.246Z,26.01
2018-04-13T16:45:13.217Z,26.09
2018-04-13T16:46:13.189Z,26.08
2018-04-13T16:47:13.186Z,26.20
2018-04-13T16:48:13.139Z,26.29
2018-04-13T16:49:13.120Z,26.27
2018-04-13T16:50:13.108Z,26.27
2018-04-13T16:51:13.055Z,26.24
2018-04-13T16:52:13.041Z,26.24
2018-04-13T16:53:13.028Z,26.24
2018-04-13T16:54:13.007Z,26.27
2018-04-13T16:55:12.960Z,26.27
2018-04-13T16:56:12.935Z,26.28
2018-04-13T16:57:12.923Z,26.22
2018-04-13T16:58:12.927Z,26.21
2018-04-13T16:59:12.877Z,26.17
2018-04-13T17:00:12.830Z,26.09
2018-04-13T17:01:12.790Z,26.09
2018-04-13T17:02:12.787Z,26.01
2018-04-13T17:03:12.741Z,26.11
2018-04-13T17:04:12.732Z,25.97
2018-04-13T17:05:12.710Z,26.01
2018-04-13T17:06:12.686Z,25.99
2018-04-13T17:07:12.671Z,26.01
2018-04-13T17:08:12.640Z,25.91
2018-04-13T17:09:12.858Z,26.04
2018-04-13T17:10:12.571Z,26.11
2018-04-13T17:11:12.561Z,26.08
2018-04-13T17:12:12.530Z,26.05
2018-04-13T17:13:12.507Z,26.21
2018-04-13T17:14:12.534Z,26.21
2018-04-13T17:15:12.433Z,26.27
2018-04-13T17:16:12.415Z,26.32
2018-04-13T17:17:12.395Z,26.32
2018-04-13T17:18:12.359Z,26.37
2018-04-13T17:20:12.332Z,26.37
2018-04-13T17:21:12.277Z,26.37
2018-04-13T17:22:12.283Z,26.43
2018-04-13T17:23:12.279Z,26.46
2018-04-13T17:24:12.196Z,26.40
2018-04-13T17:25:12.190Z,26.46
2018-04-13T17:26:12.163Z,26.43
2018-04-13T17:27:12.144Z,26.42
2018-04-13T17:28:12.120Z,26.49
2018-04-13T17:29:12.151Z,26.42
2018-04-13T17:30:12.061Z,26.43
2018-04-13T17:31:12.034Z,26.37
2018-04-13T17:32:12.015Z,26.36
2018-04-13T17:33:11.977Z,26.39
2018-04-13T17:34:11.968Z,26.36
2018-04-13T17:35:11.945Z,26.39
2018-04-13T17:36:11.910Z,26.36
2018-04-13T17:37:11.884Z,26.22
2018-04-13T17:38:11.902Z,26.22
2018-04-13T17:39:11.838Z,26.25
2018-04-13T17:40:11.850Z,26.22
2018-04-13T17:41:11.791Z,26.28
2018-04-13T17:42:11.755Z,26.22
2018-04-13T17:43:11.730Z,26.29
2018-04-13T17:44:11.698Z,26.12
2018-04-13T17:45:11.665Z,26.12
2018-04-13T17:46:11.763Z,26.15
2018-04-13T17:47:11.637Z,26.12
2018-04-13T17:48:11.609Z,26.17
2018-04-13T17:49:11.565Z,26.15
2018-04-13T17:50:11.576Z,26.15
2018-04-13T17:51:11.559Z,26.11
2018-04-13T17:52:11.506Z,26.15
2018-04-13T17:53:11.486Z,26.11
2018-04-13T17:54:11.477Z,26.15
2018-04-13T17:55:11.409Z,26.11
2018-04-13T17:56:11.383Z,26.12
2018-04-13T17:57:11.369Z,26.12
2018-04-13T17:58:11.341Z,26.24
2018-04-13T17:59:11.345Z,26.24
2018-04-13T18:00:11.292Z,26.32
2018-04-13T18:01:11.261Z,26.27
2018-04-13T18:02:11.255Z,26.40
2018-04-13T18:03:11.224Z,26.35
2018-04-13T18:04:11.187Z,26.40
2018-04-13T18:05:11.193Z,26.39
2018-04-13T18:06:11.132Z,26.32
2018-04-13T18:07:11.111Z,26.35
2018-04-13T18:08:11.085Z,26.32
2018-04-13T18:09:11.078Z,26.36
2018-04-13T18:10:11.051Z,26.39
2018-04-13T18:11:11.012Z,26.39
2018-04-13T18:12:10.979Z,26.27
2018-04-13T18:13:10.968Z,26.35
2018-04-13T18:14:10.925Z,26.39
2018-04-13T18:15:10.926Z,26.35
2018-04-13T18:16:10.876Z,26.35
2018-04-13T18:17:10.959Z,26.37
2018-04-13T18:18:10.847Z,26.31
2018-04-13T18:19:10.810Z,26.36
2018-04-13T18:20:10.792Z,26.36
2018-04-13T18:21:10.772Z,26.36
2018-04-13T18:22:10.747Z,26.35
2018-04-13T18:23:10.881Z,26.36
2018-04-13T18:24:10.693Z,26.31
2018-04-13T18:25:10.657Z,26.31
2018-04-13T18:26:10.636Z,26.37
2018-04-13T18:27:10.622Z,26.39
2018-04-13T18:28:10.596Z,26.37
2018-04-13T18:29:10.552Z,26.40
2018-04-13T18:30:10.532Z,26.39
2018-04-13T18:31:10.510Z,26.29
2018-04-13T18:32:10.484Z,26.35
2018-04-13T18:33:11.759Z,26.44
2018-04-13T18:34:10.770Z,26.32
2018-04-13T18:35:10.433Z,26.39
2018-04-13T18:36:10.393Z,26.42
2018-04-13T18:37:10.372Z,26.40
2018-04-13T18:38:10.323Z,26.31
2018-04-13T18:39:10.319Z,26.29
2018-04-13T18:40:10.315Z,26.37
2018-04-13T18:41:10.261Z,26.39
2018-04-13T18:42:10.236Z,26.42
2018-04-13T18:43:10.212Z,26.39
2018-04-13T18:44:10.163Z,26.36
2018-04-13T18:46:10.211Z,26.42
2018-04-13T18:47:10.125Z,26.37
2018-04-13T18:48:10.082Z,26.43
2018-04-13T18:49:10.265Z,26.40
2018-04-13T18:50:10.033Z,26.37
2018-04-13T18:51:10.005Z,26.46
2018-04-13T18:52:09.968Z,26.50
2018-04-13T18:53:09.949Z,26.42
2018-04-13T18:54:09.946Z,26.43
2018-04-13T18:55:10.169Z,26.37
2018-04-13T18:56:09.891Z,26.47
2018-04-13T18:57:09.846Z,26.47
2018-04-13T18:58:09.892Z,26.46
2018-04-13T18:59:09.809Z,26.49
2018-04-13T19:00:09.775Z,26.42
2018-04-13T19:01:09.760Z,26.49
2018-04-13T19:02:09.722Z,26.49
2018-04-13T19:03:09.698Z,26.46
2018-04-13T19:04:09.671Z,26.55
2018-04-13T19:05:09.640Z,26.43
2018-04-13T19:06:09.631Z,26.50
2018-04-13T19:07:09.603Z,26.39
2018-04-13T19:08:09.582Z,26.46
2018-04-13T19:09:09.535Z,26.37
2018-04-13T19:10:09.507Z,26.37
2018-04-13T19:11:09.507Z,26.36
2018-04-13T19:12:09.469Z,26.35
2018-04-13T19:13:09.450Z,26.39
2018-04-13T19:14:09.424Z,26.40
2018-04-13T19:15:09.399Z,26.39
2018-04-13T19:16:09.366Z,26.36
2018-04-13T19:17:09.328Z,26.39
2018-04-13T19:18:09.320Z,26.39
2018-04-13T19:19:09.303Z,26.35
2018-04-13T19:20:09.273Z,26.36
2018-04-13T19:21:09.231Z,26.35
2018-04-13T19:22:09.249Z,26.39
2018-04-13T19:23:09.175Z,26.39
2018-04-13T19:24:09.169Z,26.36
2018-04-13T19:25:09.129Z,26.31
2018-04-13T19:26:34.818Z,26.21
2018-04-13T19:27:09.085Z,26.25
2018-04-13T19:28:09.076Z,26.27
2018-04-13T19:29:09.047Z,26.28
2018-04-13T19:30:09.056Z,26.27
2018-04-13T19:31:08.980Z,26.32
2018-04-13T19:32:08.957Z,26.32
2018-04-13T19:33:08.952Z,26.29
2018-04-13T19:34:08.898Z,26.24
2018-04-13T19:35:08.869Z,26.21
2018-04-13T19:36:08.870Z,26.22
2018-04-13T19:37:08.869Z,26.24
2018-04-13T19:38:08.819Z,26.24
2018-04-13T19:39:08.798Z,26.22
2018-04-13T19:40:08.767Z,26.27
2018-04-13T19:41:08.740Z,26.27
2018-04-13T19:42:08.701Z,26.22
2018-04-13T19:43:08.693Z,26.22
2018-04-13T19:44:08.862Z,26.27
2018-04-13T19:45:08.625Z,26.24
2018-04-13T19:46:08.604Z,26.18
2018-04-13T19:47:08.597Z,26.11
2018-04-13T19:48:08.559Z,26.12
2018-04-13T19:49:08.538Z,26.18
2018-04-13T19:50:08.536Z,26.12
2018-04-13T19:51:08.474Z,26.20
2018-04-13T19:52:08.487Z,26.24
2018-04-13T19:53:08.426Z,26.25
2018-04-13T19:54:08.414Z,26.27
2018-04-13T19:55:08.387Z,26.25
2018-04-13T19:56:08.341Z,26.24
2018-04-13T19:57:08.314Z,26.27
2018-04-13T19:58:08.359Z,26.22
2018-04-13T19:59:08.279Z,26.22
2018-04-13T20:00:08.252Z,26.27
2018-04-13T20:01:08.224Z,26.27
2018-04-13T20:02:08.197Z,26.27
2018-04-13T20:03:08.165Z,26.22
2018-04-13T20:04:08.132Z,26.29
2018-04-13T20:05:08.133Z,26.20
2018-04-13T20:06:08.107Z,26.24
2018-04-13T20:07:08.081Z,26.24
2018-04-13T20:08:08.051Z,26.36
2018-04-13T20:09:08.071Z,26.27
2018-04-13T20:10:07.998Z,26.32
2018-04-13T20:11:07.976Z,26.35
2018-04-13T20:12:07.948Z,26.39
2018-04-13T20:13:07.969Z,26.37
2018-04-13T20:14:07.897Z,26.32
2018-04-13T20:15:07.867Z,26.32
2018-04-13T20:16:07.857Z,26.25
2018-04-13T20:17:07.842Z,26.42
2018-04-13T20:18:07.777Z,26.39
2018-04-13T20:19:07.763Z,26.37
2018-04-13T20:20:07.741Z,26.37
2018-04-13T20:21:07.721Z,26.39
2018-04-13T20:22:07.674Z,26.39
2018-04-13T20:23:07.671Z,26.37
2018-04-13T20:24:07.685Z,26.35
2018-04-13T20:25:07.613Z,26.31
2018-04-13T20:26:07.756Z,26.28
2018-04-13T20:27:07.548Z,26.21
2018-04-13T20:28:07.537Z,26.35
2018-04-13T20:29:07.519Z,26.25
2018-04-13T20:30:07.488Z,26.24
2018-04-13T20:31:07.468Z,26.27
2018-04-13T20:32:07.451Z,26.27
2018-04-13T20:33:07.442Z,26.22
2018-04-13T20:34:07.379Z,26.22
2018-04-13T20:35:07.354Z,26.17
2018-04-13T20:36:07.340Z,26.17
2018-04-13T20:37:07.315Z,26.06
2018-04-13T20:38:07.287Z,26.08
2018-04-13T20:39:07.262Z,26.12
2018-04-13T20:40:07.266Z,26.01
2018-04-13T20:41:07.267Z,26.02
2018-04-13T20:42:07.177Z,25.98
2018-04-13T20:43:07.166Z,25.98
2018-04-13T20:44:07.147Z,25.98
2018-04-13T20:45:07.114Z,25.97
2018-04-13T20:46:07.070Z,25.94
2018-04-13T20:47:07.098Z,25.99
2018-04-13T20:48:07.033Z,25.84
2018-04-13T20:49:06.994Z,25.90
2018-04-13T20:50:06.988Z,25.82
2018-04-13T20:51:06.959Z,25.82
2018-04-13T20:52:06.929Z,25.84
2018-04-13T20:53:06.899Z,25.84
2018-04-13T20:54:06.868Z,25.87
2018-04-13T20:55:06.881Z,25.80
2018-04-13T20:56:06.812Z,25.82
2018-04-13T20:57:06.813Z,25.71
2018-04-13T20:58:06.782Z,25.74
2018-04-13T20:59:06.752Z,25.77
2018-04-13T21:00:06.721Z,25.80
2018-04-13T21:01:06.710Z,25.72
2018-04-13T21:02:06.678Z,25.71
2018-04-13T21:03:06.661Z,25.69
2018-04-13T21:04:06.632Z,25.67
2018-04-13T21:05:06.615Z,25.71
2018-04-13T21:06:06.567Z,25.69
2018-04-13T21:07:06.787Z,25.72
2018-04-13T21:08:06.525Z,25.64
2018-04-13T21:09:06.510Z,25.61
2018-04-13T21:10:06.471Z,25.67
2018-04-13T21:11:06.437Z,25.62
2018-04-13T21:12:06.415Z,25.65
2018-04-13T21:13:06.386Z,25.67
2018-04-13T21:14:06.358Z,25.67
2018-04-13T21:15:06.339Z,25.67
2018-04-13T21:16:06.323Z,25.65
2018-04-13T21:17:06.296Z,25.62
2018-04-13T21:18:06.283Z,25.59
2018-04-13T21:19:06.225Z,25.54
2018-04-13T21:20:06.211Z,25.47
2018-04-13T21:21:06.194Z,25.52
2018-04-13T21:22:06.156Z,25.52
2018-04-13T21:23:06.145Z,25.49
2018-04-13T21:24:06.103Z,25.47
2018-04-13T21:25:06.085Z,25.44
2018-04-13T21:26:06.074Z,25.43
2018-04-13T21:27:06.035Z,25.39
2018-04-13T21:28:06.006Z,25.42
2018-04-13T21:29:05.972Z,25.42
2018-04-13T21:30:05.957Z,25.32
2018-04-13T21:31:05.928Z,25.30
2018-04-13T21:32:05.915Z,25.32
2018-04-13T21:33:05.868Z,25.42
2018-04-13T21:34:05.867Z,25.34
2018-04-13T21:35:05.838Z,25.27
2018-04-13T21:36:05.822Z,25.25
2018-04-13T21:37:05.794Z,25.31
2018-04-13T21:38:05.846Z,25.27
2018-04-13T21:39:05.726Z,25.28
2018-04-13T21:40:05.693Z,25.30
2018-04-13T21:41:05.671Z,25.28
2018-04-13T21:42:05.659Z,25.31
2018-04-13T21:43:05.624Z,25.24
2018-04-13T21:44:05.596Z,25.22
2018-04-13T21:45:05.583Z,25.25
2018-04-13T21:46:05.560Z,25.27
2018-04-13T21:47:05.525Z,25.22
2018-04-13T21:48:05.484Z,25.24
2018-04-13T21:49:05.688Z,25.24
2018-04-13T21:50:05.476Z,25.28
2018-04-13T21:51:05.418Z,25.27
2018-04-13T21:52:05.432Z,25.17
2018-04-13T21:53:05.363Z,25.17
2018-04-13T21:54:05.361Z,25.20
2018-04-13T21:55:05.326Z,25.19
2018-04-13T21:56:05.279Z,25.19
2018-04-13T21:57:05.256Z,25.19
2018-04-13T21:58:05.259Z,25.22
2018-04-13T21:59:05.221Z,25.16
2018-04-13T22:00:05.210Z,25.13
2018-04-13T22:01:05.158Z,25.17
2018-04-13T22:02:05.137Z,25.19
2018-04-13T22:03:05.167Z,25.13
2018-04-13T22:04:05.076Z,25.15
2018-04-13T22:05:05.310Z,25.16
2018-04-13T22:06:05.030Z,25.19
2018-04-13T22:07:05.019Z,25.20
2018-04-13T22:08:04.986Z,25.15
2018-04-13T22:09:04.967Z,25.15
2018-04-13T22:10:04.932Z,25.05
2018-04-13T22:11:04.901Z,25.07
2018-04-13T22:12:04.872Z,25.12
2018-04-13T22:13:04.853Z,25.05
2018-04-13T22:14:04.830Z,25.15
2018-04-13T22:15:04.795Z,25.13
2018-04-13T22:16:04.764Z,25.16
2018-04-13T22:17:04.746Z,25.10
2018-04-13T22:18:04.718Z,25.07
2018-04-13T22:19:04.693Z,25.10
2018-04-13T22:20:04.681Z,25.06
2018-04-13T22:21:04.653Z,25.12
2018-04-13T22:22:04.762Z,25.00
2018-04-13T22:23:04.598Z,25.02
2018-04-13T22:24:04.565Z,25.01
2018-04-13T22:25:04.559Z,25.00
2018-04-13T22:26:04.518Z,24.97
2018-04-13T22:27:04.493Z,24.97
2018-04-13T22:28:04.465Z,24.97
2018-04-13T22:29:04.472Z,24.90
2018-04-13T22:30:04.431Z,24.92
2018-04-13T22:31:04.387Z,24.90
2018-04-13T22:32:04.375Z,24.97
2018-04-13T22:33:04.351Z,24.90
2018-04-13T22:34:04.307Z,24.92
2018-04-13T22:35:04.303Z,24.94
2018-04-13T22:36:04.256Z,24.91
2018-04-13T22:37:04.241Z,24.85
2018-04-13T22:38:04.206Z,24.91
2018-04-13T22:39:04.196Z,24.88
2018-04-13T22:40:04.162Z,24.88
2018-04-13T22:41:04.162Z,24.88
2018-04-13T22:42:04.111Z,24.98
2018-04-13T22:44:04.072Z,24.90
2018-04-13T22:45:04.031Z,24.83
2018-04-13T22:46:04.015Z,24.83
2018-04-13T22:47:04.021Z,24.91
2018-04-13T22:48:03.950Z,24.87
2018-04-13T22:49:03.921Z,24.82
2018-04-13T22:50:03.908Z,24.85
2018-04-13T22:51:03.885Z,24.79
2018-04-13T22:52:03.862Z,24.79
2018-04-13T22:53:03.834Z,24.80
2018-04-13T22:54:03.799Z,24.82
2018-04-13T22:55:03.777Z,24.80
2018-04-13T22:56:03.733Z,24.80
2018-04-13T22:57:03.750Z,24.83
2018-04-13T22:58:03.753Z,24.71
2018-04-13T22:59:03.671Z,24.75
2018-04-13T23:00:03.628Z,24.71
2018-04-13T23:01:03.621Z,24.69
2018-04-13T23:02:03.580Z,24.69
2018-04-13T23:03:03.623Z,24.68
2018-04-13T23:04:03.830Z,24.64
2018-04-13T23:05:03.508Z,24.61
2018-04-13T23:06:03.516Z,24.64
2018-04-13T23:07:03.449Z,24.64
2018-04-13T23:08:03.440Z,24.63
2018-04-13T23:09:03.417Z,24.50
2018-04-13T23:10:03.389Z,24.52
2018-04-13T23:11:03.353Z,24.54
2018-04-13T23:12:03.352Z,24.54
2018-04-13T23:13:03.316Z,24.54
2018-04-13T23:14:03.287Z,24.54
2018-04-13T23:15:03.252Z,24.52
2018-04-13T23:16:03.264Z,24.52
2018-04-13T23:17:03.200Z,24.59
2018-04-13T23:18:03.200Z,24.52
2018-04-13T23:19:03.196Z,24.50
2018-04-13T23:20:03.261Z,24.52
2018-04-13T23:21:03.093Z,24.53
2018-04-13T23:22:03.090Z,24.50
2018-04-13T23:23:03.077Z,24.52
2018-04-13T23:24:03.027Z,24.53
2018-04-13T23:25:02.991Z,24.53
2018-04-13T23:27:02.966Z,24.52
2018-04-13T23:28:02.925Z,24.54
2018-04-13T23:29:02.899Z,24.52
2018-04-13T23:30:02.875Z,24.53
2018-04-13T23:31:02.858Z,24.52
2018-04-13T23:32:02.815Z,24.52
2018-04-13T23:33:02.777Z,24.50
2018-04-13T23:34:02.777Z,24.47
2018-04-13T23:35:02.755Z,24.45
2018-04-13T23:36:02.724Z,24.49
2018-04-13T23:37:02.694Z,24.49
2018-04-13T23:38:02.671Z,24.50
2018-04-13T23:39:02.652Z,24.50
2018-04-13T23:40:02.617Z,24.47
2018-04-13T23:41:02.569Z,24.47
2018-04-13T23:42:02.835Z,24.50
2018-04-13T23:43:02.520Z,24.39
2018-04-13T23:44:02.499Z,24.39
2018-04-13T23:45:02.471Z,24.39
2018-04-13T23:46:02.470Z,24.32
2018-04-13T23:47:02.410Z,24.39
2018-04-13T23:48:02.413Z,24.39
2018-04-13T23:49:02.364Z,24.29
2018-04-13T23:50:02.360Z,24.41
2018-04-13T23:51:02.305Z,24.32
2018-04-13T23:52:02.285Z,24.38
2018-04-13T23:53:02.285Z,24.34
2018-04-13T23:54:02.226Z,24.26
2018-04-13T23:55:02.214Z,24.37
2018-04-13T23:56:02.172Z,24.32
2018-04-13T23:57:02.173Z,24.38
2018-04-13T23:58:02.306Z,24.45
2018-04-13T23:59:02.099Z,24.35
